Time;durP1;ratioP1;P1;durP2;ratioP2;P2;SDS_P1;SDS_P2;PMS_P1;PMS_P2;Temp;Humidity;BMP_temperature;BMP_pressure;BME280_temperature;BME280_humidity;BME280_pressure;Samples;Min_cycle;Max_cycle;Signal;HPM_P1;HPM_P2
2022/06/13 00:01:33;;;;;;;19.20;3.35;;;;;;;14.13;100.00;101008.50;4829183;29;20037;-82
2022/06/13 00:03:59;;;;;;;15.93;3.22;;;;;;;14.13;100.00;101013.91;4846206;29;20102;-82
2022/06/13 00:06:25;;;;;;;18.15;3.50;;;;;;;14.14;100.00;101012.84;4844222;29;20034;-82
2022/06/13 00:08:51;;;;;;;18.33;3.03;;;;;;;14.10;100.00;101005.19;4844541;29;20029;-82
2022/06/13 00:11:19;;;;;;;21.02;3.90;;;;;;;14.08;100.00;100995.63;4846306;29;20033;-80
2022/06/13 00:13:48;;;;;;;20.90;3.75;;;;;;;13.99;100.00;100984.22;4845226;29;20170;-81
2022/06/13 00:16:14;;;;;;;16.80;3.80;;;;;;;14.05;100.00;100999.59;4829166;29;20022;-81
2022/06/13 00:18:42;;;;;;;24.63;3.75;;;;;;;14.05;100.00;100996.06;4845160;29;20030;-81
2022/06/13 00:21:07;;;;;;;19.00;3.47;;;;;;;14.06;100.00;101008.53;4844105;29;20034;-83
2022/06/13 00:23:36;;;;;;;24.48;4.10;;;;;;;14.05;100.00;101009.59;4845813;29;20529;-83
2022/06/13 00:26:01;;;;;;;23.00;4.18;;;;;;;13.81;100.00;100974.13;4844560;29;20044;-83
2022/06/13 00:28:26;;;;;;;13.90;3.35;;;;;;;13.99;100.00;101008.56;4830092;29;20022;-83
2022/06/13 00:30:52;;;;;;;19.55;3.90;;;;;;;13.93;100.00;100998.59;4843502;29;20030;-82
2022/06/13 00:33:17;;;;;;;21.95;4.00;;;;;;;13.90;100.00;100984.69;4844049;29;20074;-84
2022/06/13 00:35:42;;;;;;;17.85;3.85;;;;;;;13.90;100.00;100996.34;4830435;29;20038;-83
2022/06/13 00:38:08;;;;;;;23.48;4.40;;;;;;;13.85;100.00;100986.19;4827936;29;20038;-83
2022/06/13 00:40:36;;;;;;;19.05;3.45;;;;;;;13.78;100.00;100981.84;4812621;29;20060;-81
2022/06/13 00:43:01;;;;;;;22.50;3.92;;;;;;;13.84;100.00;100997.19;4842829;29;20034;-85
2022/06/13 00:45:33;;;;;;;21.63;4.30;;;;;;;13.82;100.00;100993.91;4825860;29;20050;-82
2022/06/13 00:47:59;;;;;;;15.48;3.63;;;;;;;13.69;100.00;100975.84;4835137;29;20026;-83
2022/06/13 00:50:32;;;;;;;17.25;3.30;;;;;;;13.78;100.00;100998.09;4830833;29;20068;-83
2022/06/13 00:53:06;;;;;;;21.80;4.22;;;;;;;13.68;100.00;100974.19;4843236;29;20045;-83
2022/06/13 00:55:38;;;;;;;21.77;3.80;;;;;;;13.71;100.00;100991.84;4855343;29;20033;-86
2022/06/13 00:58:05;;;;;;;19.08;4.30;;;;;;;13.66;100.00;100978.16;4851990;29;20038;-83
2022/06/13 01:00:33;;;;;;;19.95;3.63;;;;;;;13.67;100.00;100998.72;4844337;29;20030;-84
2022/06/13 01:03:01;;;;;;;17.35;3.40;;;;;;;13.64;100.00;100983.75;4845194;29;20034;-82
2022/06/13 01:05:30;;;;;;;19.67;4.50;;;;;;;13.42;100.00;100948.13;4834161;29;20037;-83
2022/06/13 01:07:59;;;;;;;18.08;3.70;;;;;;;13.65;100.00;100982.75;4832182;29;20091;-83
2022/06/13 01:13:11;;;;;;;18.30;3.50;;;;;;;13.57;100.00;100980.25;4839068;29;20041;-83
2022/06/13 01:15:48;;;;;;;20.88;3.67;;;;;;;13.54;100.00;100973.44;4825811;29;20106;-83
2022/06/13 01:18:46;;;;;;;15.43;3.08;;;;;;;13.56;100.00;100982.16;4825899;29;20469;-83
2022/06/13 01:21:25;;;;;;;20.17;3.55;;;;;;;13.44;100.00;100975.75;4820121;29;20038;-82
2022/06/13 01:24:23;;;;;;;17.02;3.35;;;;;;;13.29;100.00;100945.47;4830310;29;20030;-83
2022/06/13 01:27:10;;;;;;;22.70;3.60;;;;;;;13.43;100.00;100971.38;4829435;29;20105;-84
2022/06/13 01:29:53;;;;;;;20.15;3.33;;;;;;;13.40;100.00;100969.94;4829878;29;20042;-83
2022/06/13 01:32:36;;;;;;;24.05;4.35;;;;;;;13.30;100.00;100966.03;4828637;29;20117;-82
2022/06/13 01:35:28;;;;;;;21.45;4.03;;;;;;;13.31;100.00;100962.28;4831556;29;20465;-83
2022/06/13 01:38:02;;;;;;;26.67;4.45;;;;;;;13.35;100.00;100971.63;4829192;29;20141;-83
2022/06/13 01:40:53;;;;;;;21.17;3.45;;;;;;;13.30;100.00;100963.31;4829540;29;20061;-84
2022/06/13 01:43:42;;;;;;;17.13;3.50;;;;;;;13.19;100.00;100942.34;4840402;29;20057;-83
2022/06/13 01:46:22;;;;;;;20.60;3.60;;;;;;;13.22;100.00;100953.56;4856439;29;20045;-83
2022/06/13 01:48:51;;;;;;;18.83;3.78;;;;;;;13.21;100.00;100960.00;4860605;29;20409;-84
2022/06/13 01:51:23;;;;;;;21.48;4.10;;;;;;;13.16;100.00;100952.53;4851323;29;20040;-83
2022/06/13 01:53:55;;;;;;;22.15;5.20;;;;;;;13.12;100.00;100942.38;4867021;29;20029;-83
2022/06/13 01:56:28;;;;;;;21.20;3.92;;;;;;;13.19;100.00;100951.28;4852277;29;20097;-82
2022/06/13 01:59:05;;;;;;;23.73;3.78;;;;;;;13.05;100.00;100928.88;4849625;29;20076;-82
2022/06/13 02:01:36;;;;;;;21.52;3.70;;;;;;;13.16;100.00;100952.53;4874494;29;20032;-84
2022/06/13 02:04:17;;;;;;;22.55;3.92;;;;;;;13.16;100.00;100952.53;4870451;29;20060;-82
2022/06/13 02:06:49;;;;;;;22.00;4.05;;;;;;;13.10;100.00;100945.25;4874983;29;20468;-83
2022/06/13 02:09:22;;;;;;;19.13;4.55;;;;;;;13.22;100.00;100953.56;4865670;29;20100;-82
2022/06/13 02:11:50;;;;;;;24.23;4.10;;;;;;;13.12;100.00;100932.38;4868549;29;20488;-82
2022/06/13 02:14:35;;;;;;;21.52;3.95;;;;;;;13.24;100.00;100942.53;4869997;29;20033;-84
2022/06/13 02:17:16;;;;;;;18.98;4.10;;;;;;;13.22;100.00;100956.25;4867814;29;20421;-84
2022/06/13 02:19:47;;;;;;;30.92;5.03;;;;;;;13.28;100.00;100954.63;4862811;29;20030;-85
2022/06/13 02:22:20;;;;;;;24.85;4.90;;;;;;;13.19;100.00;100943.16;4882290;29;20026;-85
2022/06/13 02:24:57;;;;;;;25.27;4.40;;;;;;;13.21;100.00;100940.25;4894072;29;20029;-83
2022/06/13 02:27:27;;;;;;;23.48;4.30;;;;;;;13.29;100.00;100948.16;4879255;29;20033;-83
2022/06/13 02:29:56;;;;;;;25.67;4.78;;;;;;;13.27;100.00;100942.13;4865519;29;20029;-82
2022/06/13 02:32:31;;;;;;;23.08;4.55;;;;;;;13.29;100.00;100951.69;4864544;29;20116;-81
2022/06/13 02:35:02;;;;;;;27.95;4.38;;;;;;;13.31;100.00;100951.47;4866599;29;20060;-82
2022/06/13 02:37:40;;;;;;;19.23;3.78;;;;;;;13.12;100.00;100924.28;4867057;29;20044;-83
2022/06/13 02:40:15;;;;;;;21.67;3.53;;;;;;;13.24;100.00;100943.38;4883756;29;20036;-83
2022/06/13 02:42:46;;;;;;;17.88;3.58;;;;;;;13.25;100.00;100944.22;4867624;29;20025;-82
2022/06/13 02:45:19;;;;;;;23.30;4.47;;;;;;;13.21;100.00;100949.19;4849071;29;20053;-82
2022/06/13 02:47:50;;;;;;;21.48;3.70;;;;;;;13.17;100.00;100946.06;4866589;29;20034;-83
2022/06/13 02:50:21;;;;;;;15.25;3.42;;;;;;;13.12;100.00;100940.50;4887473;29;20089;-83
2022/06/13 02:52:52;;;;;;;20.60;4.15;;;;;;;13.15;100.00;100948.19;4877888;29;20031;-84
2022/06/13 02:55:18;;;;;;;16.08;3.30;;;;;;;13.09;100.00;100934.69;4865036;29;20034;-84
2022/06/13 02:57:59;;;;;;;17.60;4.13;;;;;;;13.10;100.00;100944.44;4840813;29;20038;-84
2022/06/13 03:00:44;;;;;;;20.63;3.47;;;;;;;13.08;100.00;100938.44;4870349;29;20033;-83
2022/06/13 03:03:31;;;;;;;17.75;4.20;;;;;;;13.12;100.00;100939.66;4869973;29;20057;-85
2022/06/13 03:06:04;;;;;;;18.35;3.15;;;;;;;13.14;100.00;100929.47;4867700;29;20048;-83
2022/06/13 03:08:44;;;;;;;16.42;3.25;;;;;;;13.06;100.00;100908.91;4867090;29;20025;-83
2022/06/13 03:11:28;;;;;;;19.77;3.47;;;;;;;13.19;100.00;100935.06;4850127;29;20029;-83
2022/06/13 03:14:06;;;;;;;13.45;3.03;;;;;;;13.20;100.00;100930.50;4856277;29;20423;-82
2022/06/13 03:17:00;;;;;;;13.75;2.88;;;;;;;13.24;100.00;100926.31;4850964;29;20039;-82
2022/06/13 03:19:53;;;;;;;17.85;2.95;;;;;;;13.21;100.00;100926.72;4866103;29;20029;-82
2022/06/13 03:22:38;;;;;;;15.50;2.45;;;;;;;13.05;100.00;100899.16;4866524;29;20105;-83
2022/06/13 03:25:46;;;;;;;11.93;2.05;;;;;;;13.16;100.00;100908.47;4865632;29;20053;-84
2022/06/13 03:28:15;;;;;;;10.43;1.88;;;;;;;13.37;100.00;100915.47;4862621;29;20360;-83
2022/06/13 03:30:47;;;;;;;8.48;1.70;;;;;;;13.33;100.00;100900.75;4883497;29;20078;-83
2022/06/13 03:36:26;;;;;;;14.07;2.97;;;;;;;13.66;100.00;100918.66;4878700;29;20119;-83
2022/06/13 03:38:59;;;;;;;12.88;2.05;;;;;;;13.81;100.00;100919.22;4866778;29;20101;-83
2022/06/13 03:41:31;;;;;;;8.43;1.77;;;;;;;13.83;100.00;100880.06;4870624;29;20101;-82
2022/06/13 03:44:02;;;;;;;10.57;2.08;;;;;;;14.01;100.00;100917.19;4869157;29;20050;-84
2022/06/13 03:46:41;;;;;;;11.05;1.92;;;;;;;14.03;100.00;100904.25;4851980;29;20024;-84
2022/06/13 03:49:35;;;;;;;11.75;1.90;;;;;;;14.09;100.00;100925.03;4854637;29;20036;-84
2022/06/13 03:52:05;;;;;;;11.43;1.77;;;;;;;14.15;100.00;100919.81;4855606;29;20177;-83
2022/06/13 03:54:43;;;;;;;11.77;2.30;;;;;;;13.99;100.00;100904.94;4850724;29;20025;-82
2022/06/13 03:57:16;;;;;;;16.33;2.22;;;;;;;14.09;100.00;100916.09;4848648;29;20021;-84
2022/06/13 03:59:47;;;;;;;11.10;1.75;;;;;;;13.94;100.00;100899.34;4864682;29;20124;-83
2022/06/13 04:02:16;;;;;;;9.52;1.88;;;;;;;14.03;100.00;100923.22;4866454;29;20162;-84
2022/06/13 04:04:45;;;;;;;9.77;1.80;;;;;;;13.94;100.00;100918.28;4847265;29;20030;-84
2022/06/13 04:07:11;;;;;;;9.10;1.80;;;;;;;13.91;100.00;100916.84;4874467;29;20502;-84
2022/06/13 04:09:41;;;;;;;10.85;1.80;;;;;;;13.83;100.00;100909.00;4865759;29;20056;-82
2022/06/13 04:12:24;;;;;;;7.75;1.67;;;;;;;13.81;100.00;100909.22;4871743;29;20047;-83
2022/06/13 04:15:27;;;;;;;12.52;1.90;;;;;;;13.94;100.00;100931.81;4865043;29;20025;-82
2022/06/13 04:18:11;;;;;;;9.35;2.10;;;;;;;14.05;100.00;100923.00;4862541;29;20526;-81
2022/06/13 04:21:01;;;;;;;11.77;1.80;;;;;;;14.01;100.00;100922.63;4870311;29;20037;-81
2022/06/13 04:23:40;;;;;;;7.60;1.50;;;;;;;13.89;100.00;100908.13;4880131;29;20549;-80
2022/06/13 04:26:26;;;;;;;10.30;1.98;;;;;;;13.79;100.00;100897.78;4855253;29;20036;-82
2022/06/13 04:29:04;;;;;;;8.20;1.60;;;;;;;13.97;100.00;100918.69;4863295;29;20034;-79
2022/06/13 04:31:32;;;;;;;10.55;1.80;;;;;;;13.93;100.00;100903.09;4844919;29;20037;-83
2022/06/13 04:34:16;;;;;;;6.43;1.70;;;;;;;14.24;100.00;100915.78;4848603;29;20101;-80
2022/06/13 04:36:44;;;;;;;9.25;1.80;;;;;;;14.29;100.00;100918.66;4862388;29;20026;-82
2022/06/13 04:39:13;;;;;;;12.77;2.25;;;;;;;14.49;100.00;100897.63;4862274;29;20082;-83
2022/06/13 04:41:43;;;;;;;15.57;2.30;;;;;;;14.45;100.00;100891.03;4861025;29;20089;-81
2022/06/13 04:44:15;;;;;;;15.20;2.53;;;;;;;14.78;100.00;100936.78;4860921;29;20053;-82
2022/06/13 04:46:43;;;;;;;14.40;2.55;;;;;;;15.12;100.00;100914.72;4863346;29;20029;-80
2022/06/13 04:49:24;;;;;;;11.75;2.45;;;;;;;14.79;100.00;100905.91;4861780;29;20349;-80
2022/06/13 04:51:52;;;;;;;12.18;2.38;;;;;;;14.77;100.00;100926.16;4861953;29;20040;-82
2022/06/13 04:54:39;;;;;;;11.95;1.92;;;;;;;15.44;100.00;100937.91;4863449;29;20025;-79
2022/06/13 04:57:05;;;;;;;8.70;1.77;;;;;;;16.52;100.00;100919.00;4849016;29;20044;-79
2022/06/13 04:59:31;;;;;;;10.93;1.75;;;;;;;16.08;100.00;100937.47;4848774;29;20037;-80
2022/06/13 05:02:00;;;;;;;10.13;1.25;;;;;;;15.89;100.00;100921.25;4867775;29;20045;-80
2022/06/13 05:04:31;;;;;;;10.75;1.55;;;;;;;16.62;95.41;100938.25;4867024;29;20046;-82
2022/06/13 05:07:23;;;;;;;7.50;1.60;;;;;;;17.10;92.35;100939.91;4869438;29;20029;-80
2022/06/13 05:09:56;;;;;;;8.73;1.52;;;;;;;16.57;93.56;100940.84;4866875;29;20517;-79
2022/06/13 05:12:30;;;;;;;5.65;1.45;;;;;;;16.53;93.10;100947.81;4875285;29;20032;-79
2022/06/13 05:15:07;;;;;;;7.65;1.30;;;;;;;17.06;89.65;100950.44;4859927;29;20025;-81
2022/06/13 05:17:51;;;;;;;12.10;1.70;;;;;;;17.04;89.48;100951.72;4865020;29;20029;-79
2022/06/13 05:20:34;;;;;;;7.82;1.42;;;;;;;16.74;90.09;100944.50;4865284;29;20033;-80
2022/06/13 05:23:27;;;;;;;6.20;1.30;;;;;;;16.32;90.85;100949.19;4849305;29;20056;-81
2022/06/13 05:25:57;;;;;;;8.30;1.63;;;;;;;16.71;88.40;100942.25;4850387;29;20036;-81
2022/06/13 05:28:25;;;;;;;5.18;1.20;;;;;;;16.46;90.32;100939.78;4865876;29;20131;-82
2022/06/13 05:30:53;;;;;;;6.43;1.30;;;;;;;16.21;91.31;100954.38;4856449;29;20033;-82
2022/06/13 05:33:22;;;;;;;6.75;1.70;;;;;;;15.68;92.55;100919.06;4870419;29;20030;-79
2022/06/13 05:35:52;;;;;;;10.63;2.08;;;;;;;15.66;93.63;100956.38;4876246;29;20112;-81
2022/06/13 05:38:21;;;;;;;9.52;1.40;;;;;;;15.51;95.86;100956.81;4865608;29;20029;-79
2022/06/13 05:40:47;;;;;;;11.70;2.42;;;;;;;15.32;97.74;100957.88;4868049;29;20036;-82
2022/06/13 05:43:13;;;;;;;10.77;1.90;;;;;;;15.24;98.92;100950.88;4870983;29;20045;-82
2022/06/13 05:45:40;;;;;;;13.02;2.08;;;;;;;15.21;100.00;100943.19;4855748;29;20041;-81
2022/06/13 05:48:11;;;;;;;7.93;1.67;;;;;;;15.24;100.00;100959.00;4870554;29;20111;-84
2022/06/13 05:50:38;;;;;;;22.70;3.22;;;;;;;15.09;100.00;100972.09;4873826;29;20029;-83
2022/06/13 05:53:03;;;;;;;10.63;2.35;;;;;;;14.88;100.00;100957.94;4872015;29;20037;-82
2022/06/13 05:55:29;;;;;;;12.80;2.28;;;;;;;14.88;100.00;100970.66;4857141;29;20037;-83
2022/06/13 05:57:54;;;;;;;11.25;2.28;;;;;;;14.86;100.00;100970.03;4848904;29;20052;-85
2022/06/13 06:00:24;;;;;;;13.40;2.25;;;;;;;14.91;100.00;100971.03;4862701;29;20112;-84
2022/06/13 06:02:49;;;;;;;14.20;2.13;;;;;;;14.91;100.00;100959.38;4862515;29;20044;-86
2022/06/13 06:05:15;;;;;;;14.40;2.30;;;;;;;15.18;100.00;100970.75;4878606;29;20038;-83
2022/06/13 06:07:41;;;;;;;9.85;1.70;;;;;;;14.93;100.00;100952.69;4874947;29;20048;-83
2022/06/13 06:10:15;;;;;;;7.10;1.30;;;;;;;14.99;100.00;100959.88;4873566;29;20165;-83
2022/06/13 06:12:40;;;;;;;8.13;1.48;;;;;;;15.28;100.00;100961.03;4859579;29;20455;-84
2022/06/13 06:15:06;;;;;;;7.20;1.50;;;;;;;15.57;99.20;100958.59;4881049;29;20041;-84
2022/06/13 06:17:32;;;;;;;5.95;1.23;;;;;;;15.54;95.70;100963.66;4857089;29;20053;-84
2022/06/13 06:19:58;;;;;;;6.75;0.90;;;;;;;15.76;92.60;100970.28;4864911;29;20033;-83
2022/06/13 06:22:23;;;;;;;9.15;1.38;;;;;;;15.51;93.34;100929.69;4869921;29;20062;-84
2022/06/13 06:24:48;;;;;;;5.03;1.33;;;;;;;16.05;92.47;100965.91;4867515;29;20068;-81
2022/06/13 06:27:15;;;;;;;7.30;1.30;;;;;;;16.22;92.08;100928.03;4851623;29;20372;-83
2022/06/13 06:29:40;;;;;;;7.22;1.30;;;;;;;16.31;93.18;100961.13;4877571;29;20434;-84
2022/06/13 06:32:06;;;;;;;5.95;1.00;;;;;;;15.85;93.96;100952.63;4869116;29;20076;-83
2022/06/13 06:34:31;;;;;;;7.80;1.30;;;;;;;15.94;94.06;100958.56;4861516;29;20025;-83
2022/06/13 06:36:57;;;;;;;4.93;1.25;;;;;;;16.13;92.44;100970.19;4855416;29;20048;-83
2022/06/13 06:39:22;;;;;;;6.90;1.50;;;;;;;16.31;90.77;100953.81;4873958;29;20029;-82
2022/06/13 06:41:48;;;;;;;8.27;1.17;;;;;;;16.38;91.40;100970.81;4873557;29;20040;-83
2022/06/13 06:44:14;;;;;;;9.23;1.77;;;;;;;16.69;90.77;100974.31;4866771;29;20088;-81
2022/06/13 06:46:39;;;;;;;7.20;1.38;;;;;;;17.02;89.88;100965.59;4843107;29;20029;-84
2022/06/13 06:49:04;;;;;;;6.57;1.38;;;;;;;16.66;90.29;100964.72;4883408;29;20037;-83
2022/06/13 06:51:30;;;;;;;9.05;1.50;;;;;;;16.70;89.82;100973.22;4865457;29;20044;-84
2022/06/13 07:02:10;;;;;;;8.17;1.30;;;;;;;16.12;92.91;100950.34;4867982;29;20271;-83
2022/06/13 07:04:35;;;;;;;8.43;1.70;;;;;;;16.50;92.58;100972.75;4876668;29;20040;-83
2022/06/13 07:07:01;;;;;;;12.90;1.90;;;;;;;16.31;95.25;100945.66;4874226;29;20049;-84
2022/06/13 07:09:26;;;;;;;7.43;1.65;;;;;;;16.20;94.09;100952.72;4871522;29;20054;-84
2022/06/13 07:11:54;;;;;;;7.93;1.60;;;;;;;16.39;91.75;100971.63;4864048;29;20034;-85
2022/06/13 07:14:22;;;;;;;9.13;1.80;;;;;;;16.55;91.84;100970.13;4878836;29;20026;-83
2022/06/13 07:16:48;;;;;;;8.02;1.70;;;;;;;16.50;92.11;100979.00;4871721;29;20025;-85
2022/06/13 07:19:13;;;;;;;8.80;2.00;;;;;;;16.41;91.74;100945.91;4885695;29;20029;-85
2022/06/13 07:21:38;;;;;;;5.53;1.58;;;;;;;16.57;91.60;100970.75;4861843;29;20037;-85
2022/06/13 07:24:04;;;;;;;9.27;1.80;;;;;;;16.41;92.32;100980.41;4846164;29;20033;-84
2022/06/13 07:26:31;;;;;;;7.82;1.77;;;;;;;16.24;91.80;100955.81;4875178;29;20045;-83
2022/06/13 07:28:56;;;;;;;8.88;2.05;;;;;;;16.31;92.60;100972.81;4872434;29;20029;-84
2022/06/13 07:31:26;;;;;;;9.23;2.10;;;;;;;16.23;93.77;100956.88;4878151;29;20053;-83
2022/06/13 07:33:53;;;;;;;8.77;2.00;;;;;;;16.65;93.23;100978.53;4854535;29;20033;-83
2022/06/13 07:36:18;;;;;;;7.60;1.50;;;;;;;16.42;90.13;100963.03;4865675;29;20037;-82
2022/06/13 07:38:44;;;;;;;8.07;1.60;;;;;;;16.40;88.78;100966.00;4876562;29;20017;-82
2022/06/13 07:41:17;;;;;;;9.40;1.80;;;;;;;16.49;88.90;100979.22;4853546;29;20461;-83
2022/06/13 07:43:43;;;;;;;8.20;1.70;;;;;;;16.53;90.82;100989.41;4887230;29;20545;-84
2022/06/13 07:46:11;;;;;;;8.90;1.98;;;;;;;16.37;93.07;100993.63;4863275;29;20066;-83
2022/06/13 07:48:36;;;;;;;11.48;2.20;;;;;;;16.41;92.55;100974.97;4869592;29;20037;-83
2022/06/13 07:51:02;;;;;;;10.00;1.92;;;;;;;16.45;90.30;100982.41;4848570;29;20033;-82
2022/06/13 07:53:28;;;;;;;11.07;2.15;;;;;;;16.48;90.94;100974.84;4850116;29;20543;-83
2022/06/13 07:55:53;;;;;;;8.48;1.73;;;;;;;16.52;90.34;100985.00;4872097;29;20115;-83
2022/06/13 07:58:30;;;;;;;9.50;1.98;;;;;;;16.32;91.93;100982.59;4856442;29;20025;-85
2022/06/13 08:00:57;;;;;;;8.35;2.00;;;;;;;16.41;89.76;100992.06;4859326;29;20033;-83
2022/06/13 08:03:27;;;;;;;9.85;1.95;;;;;;;16.53;91.50;100994.81;4872851;29;20033;-81
2022/06/13 08:05:53;;;;;;;13.88;2.10;;;;;;;16.61;91.51;100999.09;4874403;29;20088;-80
2022/06/13 08:08:18;;;;;;;8.15;1.65;;;;;;;16.54;89.28;101009.22;4846480;29;20037;-82
2022/06/13 08:10:45;;;;;;;9.50;2.20;;;;;;;16.52;89.83;101000.47;4870577;29;20059;-82
2022/06/13 08:13:16;;;;;;;9.30;1.83;;;;;;;16.32;91.66;101007.03;4847611;29;20033;-83
2022/06/13 08:15:41;;;;;;;8.90;1.92;;;;;;;16.39;91.01;101020.53;4858968;29;20502;-82
2022/06/13 08:18:07;;;;;;;8.38;1.70;;;;;;;16.49;90.95;101025.38;4872297;29;20033;-82
2022/06/13 08:20:33;;;;;;;10.30;1.50;;;;;;;16.33;90.62;101005.19;4851196;29;20483;-82
2022/06/13 08:23:00;;;;;;;6.20;1.58;;;;;;;16.23;91.85;101010.34;4850048;29;20685;-82
2022/06/13 08:25:32;;;;;;;7.70;1.90;;;;;;;16.34;92.10;101010.38;4846273;29;20044;-84
2022/06/13 08:27:59;;;;;;;6.28;1.40;;;;;;;16.48;87.88;101035.44;4872293;29;20104;-82
2022/06/13 08:30:38;;;;;;;9.45;1.73;;;;;;;16.33;87.49;101022.31;4863606;29;20120;-83
2022/06/13 08:33:04;;;;;;;5.78;1.40;;;;;;;16.42;87.44;101039.06;4850185;29;20033;-83
2022/06/13 08:35:30;;;;;;;11.57;1.70;;;;;;;16.40;86.57;101023.03;4872046;29;20056;-81
2022/06/13 08:37:55;;;;;;;6.95;1.73;;;;;;;16.28;84.52;101002.31;4865556;29;20123;-83
2022/06/13 08:40:22;;;;;;;7.05;1.65;;;;;;;16.53;85.32;101024.72;4845396;29;20037;-83
2022/06/13 08:42:57;;;;;;;6.55;1.48;;;;;;;16.36;85.67;101032.69;4855372;29;20412;-82
2022/06/13 08:45:37;;;;;;;9.45;1.55;;;;;;;16.04;88.18;101025.84;4853360;29;20114;-82
2022/06/13 08:48:23;;;;;;;9.82;1.45;;;;;;;16.17;86.84;101036.53;4862948;29;20036;-84
2022/06/13 08:50:58;;;;;;;8.98;2.22;;;;;;;16.33;87.64;101038.59;4856151;29;20026;-85
2022/06/13 08:53:36;;;;;;;9.75;2.33;;;;;;;16.26;86.01;101031.59;4851265;29;20021;-83
2022/06/13 08:56:09;;;;;;;8.57;1.98;;;;;;;16.31;86.63;101032.56;4853906;29;20074;-81
2022/06/13 08:58:43;;;;;;;10.23;1.90;;;;;;;16.31;86.89;101048.03;4861025;29;20025;-79
2022/06/13 09:01:14;;;;;;;7.88;1.90;;;;;;;15.97;89.38;101053.91;4852710;29;20607;-81
2022/06/13 09:03:50;;;;;;;8.20;1.35;;;;;;;16.02;87.52;101046.97;4850608;29;20106;-81
2022/06/13 09:06:21;;;;;;;10.27;1.55;;;;;;;16.06;87.73;101034.59;4859622;29;20074;-82
2022/06/13 09:08:54;;;;;;;9.68;1.80;;;;;;;16.10;87.08;101049.38;4857309;29;20129;-79
2022/06/13 09:11:48;;;;;;;8.10;1.35;;;;;;;16.32;87.02;101044.25;4842047;29;20038;-79
2022/06/13 09:14:36;;;;;;;10.15;1.98;;;;;;;16.36;86.44;101049.00;4843630;29;20090;-80
2022/06/13 09:17:07;;;;;;;12.27;2.15;;;;;;;16.47;86.34;101043.81;4846364;29;20037;-80
2022/06/13 09:19:54;;;;;;;10.63;1.58;;;;;;;16.36;85.27;101040.84;4847219;29;20029;-80
2022/06/13 09:22:50;;;;;;;8.75;1.88;;;;;;;16.45;85.50;101046.75;4841988;29;20033;-80
2022/06/13 09:25:34;;;;;;;8.70;1.63;;;;;;;16.48;83.15;101040.03;4842131;29;20381;-80
2022/06/13 09:28:09;;;;;;;11.80;2.10;;;;;;;16.48;85.99;101037.31;4842067;29;20589;-80
2022/06/13 09:30:38;;;;;;;8.25;1.77;;;;;;;16.41;87.72;101049.13;4846226;29;20030;-80
2022/06/13 09:33:28;;;;;;;8.77;2.15;;;;;;;16.59;89.82;101047.41;4841327;29;20390;-81
2022/06/13 09:36:13;;;;;;;10.23;1.88;;;;;;;16.75;88.06;101046.72;4845786;29;20044;-79
2022/06/13 09:38:48;;;;;;;8.98;1.92;;;;;;;16.70;87.08;101035.72;4849214;29;20484;-80
2022/06/13 09:41:34;;;;;;;8.48;1.90;;;;;;;16.54;87.64;101053.53;4843291;29;20037;-80
2022/06/13 09:44:11;;;;;;;5.68;1.17;;;;;;;16.34;86.31;101056.53;4863875;29;20479;-80
2022/06/13 09:46:55;;;;;;;9.30;2.30;;;;;;;16.53;85.62;101042.91;4872304;29;20034;-81
2022/06/13 09:49:39;;;;;;;10.57;2.03;;;;;;;16.43;87.26;101055.16;4847926;29;20459;-80
2022/06/13 09:52:23;;;;;;;9.00;1.83;;;;;;;16.53;86.92;101053.78;4847263;29;20037;-82
2022/06/13 09:54:48;;;;;;;7.03;1.83;;;;;;;16.62;85.06;101044.19;4867835;29;20025;-81
2022/06/13 09:57:16;;;;;;;12.48;1.67;;;;;;;16.71;85.18;101059.09;4870776;29;20041;-80
2022/06/13 10:00:02;;;;;;;7.70;1.60;;;;;;;16.55;84.33;101040.75;4853395;29;20037;-80
2022/06/13 10:02:47;;;;;;;8.15;1.23;;;;;;;16.65;82.75;101060.03;4863491;29;20121;-79
2022/06/13 10:05:17;;;;;;;11.60;1.77;;;;;;;16.64;85.19;101021.19;4863566;29;20033;-80
2022/06/13 10:08:22;;;;;;;6.47;1.70;;;;;;;16.73;84.62;101054.28;4849948;29;20047;-81
2022/06/13 10:11:09;;;;;;;11.10;1.70;;;;;;;16.86;83.62;101050.56;4866736;29;20043;-80
2022/06/13 10:14:07;;;;;;;8.55;1.77;;;;;;;16.63;80.49;101043.97;4873684;29;20360;-82
2022/06/13 10:16:51;;;;;;;9.30;1.70;;;;;;;16.64;81.67;101051.06;4829483;29;20121;-80
2022/06/13 10:19:40;;;;;;;12.70;4.70;;;;;;;16.65;84.39;101060.88;4870435;29;20030;-84
2022/06/13 10:22:23;;;;;;;8.60;1.90;;;;;;;16.48;83.27;101031.88;4868248;29;20053;-81
2022/06/13 10:25:10;;;;;;;11.48;2.28;;;;;;;16.52;82.67;101061.06;4871142;29;20114;-84
2022/06/13 10:28:40;;;;;;;18.08;2.40;;;;;;;16.48;84.49;101051.72;4857886;29;20033;-82
2022/06/13 10:31:20;;;;;;;12.55;2.45;;;;;;;16.58;86.07;101052.00;4813089;29;20380;-82
2022/06/13 10:33:54;;;;;;;12.38;2.40;;;;;;;16.61;86.18;101067.81;4862821;29;20025;-84
2022/06/13 10:36:39;;;;;;;9.80;2.10;;;;;;;16.45;85.20;101025.84;4869239;29;20167;-82
2022/06/13 10:39:11;;;;;;;9.27;2.30;;;;;;;16.58;83.44;101056.59;4849648;29;20041;-82
2022/06/13 10:41:40;;;;;;;10.30;2.08;;;;;;;16.54;85.02;101053.53;4876272;29;20112;-81
2022/06/13 10:44:09;;;;;;;11.82;2.15;;;;;;;16.64;86.21;101061.09;4858278;29;20053;-82
2022/06/13 10:46:34;;;;;;;9.73;2.35;;;;;;;16.68;87.48;101065.00;4876913;29;20033;-79
2022/06/13 10:49:11;;;;;;;8.43;2.22;;;;;;;16.76;87.39;101058.47;4875011;29;20090;-80
2022/06/13 10:51:38;;;;;;;13.77;2.60;;;;;;;16.66;86.66;101023.69;4868761;29;20463;-81
2022/06/13 10:54:15;;;;;;;11.00;2.22;;;;;;;16.78;87.02;101050.88;4856060;29;20043;-81
2022/06/13 10:56:44;;;;;;;13.20;2.65;;;;;;;16.55;88.33;101046.19;4853156;29;20063;-81
2022/06/13 10:59:29;;;;;;;17.58;3.28;;;;;;;16.80;88.53;101076.75;4851702;29;20033;-79
2022/06/13 11:02:05;;;;;;;11.57;2.33;;;;;;;16.81;89.04;101067.53;4856151;29;20021;-82
2022/06/13 11:04:35;;;;;;;16.52;2.70;;;;;;;16.82;90.23;101060.22;4865423;29;20041;-81
2022/06/13 11:07:10;;;;;;;12.13;2.00;;;;;;;16.90;89.01;101077.00;4862460;29;20030;-81
2022/06/13 11:09:39;;;;;;;7.70;1.60;;;;;;;16.88;89.00;101079.13;4882048;29;20037;-82
2022/06/13 11:12:23;;;;;;;17.20;2.72;;;;;;;16.94;87.89;101079.25;4867341;29;20063;-81
2022/06/13 11:23:12;;;;;;;13.93;2.43;;;;;;;16.89;87.36;101082.69;4882290;29;20057;-81
2022/06/13 11:25:37;;;;;;;8.45;2.17;;;;;;;16.85;87.29;101090.50;4848732;29;20045;-80
2022/06/13 11:28:03;;;;;;;9.80;2.03;;;;;;;16.97;86.15;101081.53;4851894;29;20029;-84
2022/06/13 11:30:49;;;;;;;13.23;2.13;;;;;;;16.63;87.48;101043.97;4869644;29;20032;-84
2022/06/13 11:33:32;;;;;;;15.95;2.42;;;;;;;16.85;89.23;101085.06;4855417;29;20130;-84
2022/06/13 11:36:18;;;;;;;13.13;2.55;;;;;;;16.75;87.88;101073.91;4877919;29;20060;-83
2022/06/13 11:38:59;;;;;;;8.75;2.08;;;;;;;16.90;86.48;101066.16;4855897;29;20036;-84
2022/06/13 11:41:43;;;;;;;10.00;1.80;;;;;;;17.17;84.05;101083.91;4886322;29;20025;-85
2022/06/13 11:44:18;;;;;;;5.82;1.60;;;;;;;17.00;81.32;101091.94;4880249;29;20041;-84
2022/06/13 11:46:45;;;;;;;;;;;;;;;17.03;81.73;101092.28;4857024;29;20033;-85
2022/06/13 11:49:16;;;;;;;10.57;2.20;;;;;;;17.09;80.60;101096.78;4870938;29;19911;-85
2022/06/13 11:51:59;;;;;;;13.35;2.65;;;;;;;16.96;82.98;101085.31;4851004;29;20036;-84
2022/06/13 11:54:40;;;;;;;8.07;2.20;;;;;;;17.27;81.91;101101.28;4873965;29;20029;-85
2022/06/13 11:57:15;;;;;;;17.70;2.75;;;;;;;17.35;82.77;101100.94;4855469;29;20036;-85
2022/06/13 12:00:18;;;;;;;10.82;2.33;;;;;;;17.37;83.49;101103.41;4862151;29;20093;-86
2022/06/13 12:02:49;;;;;;;9.80;2.03;;;;;;;17.02;84.04;101103.38;4859498;29;20475;-85
2022/06/13 12:05:31;;;;;;;9.52;2.30;;;;;;;17.08;85.77;101089.66;4867730;29;20044;-85
2022/06/13 12:08:01;;;;;;;12.70;2.40;;;;;;;16.96;88.10;101063.56;4871060;29;20127;-85
2022/06/13 12:10:41;;;;;;;15.98;2.70;;;;;;;16.99;87.14;101068.53;4884542;29;20056;-84